Dutch
Home     News     Corporate     Events & Tours     Flight ops     Crew centre      
My transavia virtual    Join us    Last logs    Who is flying    Forum    Software    Training    VRTS     
 

view flightdata
view flightplan
view OFP
view flightlog



flightdata:
pilot: Filipe Spring
flight: TRA5194
from: LFPO (Paris Paris Orly)
to: EHAM (Amsterdam Schiphol)
date: 02-08-2018
departure: 22:18z
arrival: 23:27z
duration: 1:08
aircraft: B738 (PHHZG)
distance: 364 NM
touchdown: -83 ft/m @ 144 KIAS



flightplan:
-(FPL-TRA5194-IN
-B738/M-SDEEFGHIJRWXY/LB1
-LFPO2230
-N0416F240 NURMO UN874 VEKIN UN873 FERDI UY18 DENUT
-EHAM0050 EHRD
-PBN/A1B1D1O1S2T1 DOF/180802 REG/PHHZG EET/EBUR0024 EHAA0031 SEL/JQBG RVR/200 OPR/TRA RMK/TCAS )



operational flightplan (OFP):
DISPATCH BRIEFING
--------- --------- --------- --------- --------- --------- --------- --------- --------- ---------
PREDEPARTURE ATC CLEARANCE:
.

.
--------- --------- --------- --------- --------- --------- --------- --------- --------- ---------
OFP 1       02 AUG 18/22:12


TRA5194    C/STRA5194   LFPO/ORY    EHAM/AMS            CRYZ SYS               CI 15
02 AUG 18  PH-HZG       1255/1305   1410/1355           GND DIST      236   
B737-800 CF TAB:       CTOT ....    STA 14:00           AIR DIST      283
                                                       AVG W/C          0
MAXIMUM    ZFW 62731  LAW 66360   TOW 75975            AVG ISA       M11
ESTIMATED  ZFW 55831  LAW 57498   TOW 59597            F-F FACTOR     0.0
ACTUAL     ZFW......  LAW......  TOW.......

--------- --------- --------- --------- --------- --------- --------- --------- --------- ---------
TRIP        2099   0050           .....  .....
CONT         173   0005           .....  .....
ALTN         455   0010  EHRD     .....  .....  ....
FINAL       1039   0030           .....  .....
ADDNL          0   0000           .....  .....
TANKERING                  
PLN TOF     3766   0134
DIFF        ....   ....
PLN TOF     ....   ....  (CORRECTED)   
EXTRA          0   ....                  
TOF         3766                    
TAXI         120                      
BLOCK       3886        

--------- --------- --------- --------- --------- --------- --------- --------- --------- ---------

REASON EXTRA FUEL     MATRIX FUEL: ...
O ECN-ECONOMICAL      O TMP-TEMPORARILY      O ATC-AIR TRAFFIC CONTROL
O FOB-FUEL ON BOARD   O MSC-MISCELLANEOUS    O FPC-FLIGHT PLN CORR
O WXR-WEATHER         O TEC_TECHNICAL        ACT.CI/CRZ USED: . . .

--------- --------- --------- --------- --------- --------- --------- --------- --------- ---------
                                                  00 MIN HOLD EHAM: 0 EXTRA


--------- --------- --------- --------- --------- --------- --------- --------- --------- ---------
COMMANDERS NAME:                                  SIGNATURE:

--------- --------- --------- --------- --------- --------- --------- --------- --------- ---------
FROM:   LFPO ELEV 291         TO: EHAM ELEV -11     ALTN: EHRD ELEV -14
ATC C/S      : C/S TRA5194                AVG ISA  : M11
CO-ROUTE     : ---                       AVG TT   :
FMC-RES      : 1494                      AVG W/C  : 0
CRZ ALT      : FL280
CRZ SYS      : CI 15


           LFPO/24  N0416F280 NURM6P NURMO UN874 VEKIN UN873 FERDI UY18 DENUT DENU1A EHAM/18R

--------- --------- --------- --------- --------- --------- --------- --------- --------- ---------


RVSM ALT CHECK:  FL:...... LEFT: ...... STBY: ...... RIGHT: ......

--------- --------- ---------   -------- --------- --------- ---------


--------- --------- --------- --------- --------- --------- --------- --------- --------- ---------
DESTINATION ALTERNATE EHRD
--------- --------- --------- --------- --------- --------- --------- --------- --------- ---------



--------- --------- --------- --------- --------- --------- --------- --------- --------- ---------
ALTERNATE SUMMARY
--------- --------- --------- --------- --------- --------- --------- --------- --------- ---------

     ALTN     DIST  LVL      WC    TIME   FUEL  VIA
     EHRD/24    27 FL050       0   0010    455  AMS
INFO/EHEH/21    66 FL110       0   0017    770  AMS DCT EHN
                                          P315
INFO/EHGG/23    93 FL150       0   0022    967  AMS DCT EEL
                                          P512
INFO/EBBR/25L   94 FL150       0   0022    979  AMS DCT BUB
                                          P524


-(FPL-TRA5194-IN
-B738/M-SDEEFGHIJRWXY/LB1
-LFPO2230
-N0416F240 NURMO UN874 VEKIN UN873 FERDI UY18 DENUT
-EHAM0050 EHRD
-PBN/A1B1D1O1S2T1 DOF/180802 REG/PHHZG EET/EBUR0024 EHAA0031 SEL/JQBG RVR/200 OPR/TRA RMK/TCAS )

WEATHER BRIEFING - GENERATED 02 AUG 2018 22:12 UTC
--------------------------------------------------------------------------------

LFPO EHAM EHRD EHEH EHGG EBBR

--------------------------------------------------------------------------------
ORIGIN: LFPO (PARIS)
--------------------------------------------------------------------------------
LFPO 022130Z 04009KT CAVOK 26/14 Q1022 NOSIG

LFPO 021700Z 0218/0324 04005KT CAVOK
      BECMG 0320/0322 34005KT


--------------------------------------------------------------------------------
DESTINATION: EHAM (SCHIPHOL)
--------------------------------------------------------------------------------
EHAM 022155Z 36004KT CAVOK 19/15 Q1023 NOSIG

EHAM 021703Z 0218/0324 33006KT CAVOK
      BECMG 0219/0222 VRB03KT PROB30
      TEMPO 0301/0305 6000 MIFG
      BECMG 0309/0312 36010KT
      BECMG 0318/0321 02005KT


--------------------------------------------------------------------------------
ALTERNATE: EHRD (ROTTERDAM)
--------------------------------------------------------------------------------
EHRD 022155Z AUTO 34003KT 9999 NCD 18/14 Q1023 NOSIG

EHRD 021703Z 0218/0324 33006KT CAVOK
      BECMG 0219/0222 VRB03KT PROB40
      TEMPO 0301/0305 6000 MIFG
      BECMG 0309/0312 36010KT
      BECMG 0318/0321 02005KT


--------------------------------------------------------------------------------
ALTERNATE: EHEH (EINDHOVEN)
--------------------------------------------------------------------------------
EHEH 022155Z AUTO 33005KT 320V020 9999 NCD 21/14 Q1023 BLU

EHEH 021714Z 0218/0324 34006KT CAVOK
      TEMPO 0306/0311 VRB03KT


--------------------------------------------------------------------------------
ALTERNATE: EHGG (GRONINGEN)
--------------------------------------------------------------------------------
EHGG 022155Z AUTO 31001KT 9999 NCD 19/15 Q1024

EHGG 021710Z 0218/0324 01006KT CAVOK PROB40
      TEMPO 0301/0305 4000 MIFG


--------------------------------------------------------------------------------
ALTERNATE: EBBR (BRUSSELS)
--------------------------------------------------------------------------------
EBBR 022150Z 01003KT CAVOK 20/15 Q1024 NOSIG

EBBR 021720Z 0218/0324 34007KT CAVOK=  EDDF 021700Z 0218/0324 03007KT CAVOK


NOTAM BRIEFING - GENERATED 02 AUG 2018 22:12 UTC
--------------------------------------------------------------------------------

LFPO EHAM EHRD EHRD EHEH EHGG EBBR

--------------------------------------------------------------------------------
GLOBAL TRANSAVIA.COM VIRTUAL NOTAMS
--------------------------------------------------------------------------------
REF:NIL PLEASE CONTACT OPERATIONS IN CASE OF STRUCTURAL FLIGHTPLAN ERRORS ON FLIGHT-OPS@TRANSAVIA-VIRTUAL.COM
VALID:UFN

REF:NIL
PLEASE CHECK ACARS EVERY 10 MINUTES WHEN FLYING WITH SOUND OFF. AN NEW ACARS MESSAGE PRODUCE A SOUND SIGNAL UNTILL ITS READ. FLOWCONTROL DON'T RECEIVE MUCH REACTION ON OUTGOING ACARS MESSAGES ACCORDING FLIGHTSTATUS.
SOURCE: SPL/HV/OCC/
END VALID: UFN

REF:NIL
PLEASE CONTACT FLOWCONTROL IN CASE OF PROBLEMS WITH ROUTINGS
SOURCE: SPL/HV/OCC/
END VALID: UFN

REF:NIL
IN CASE OF ENGINE-OUT FLY V2 OR V2 20 MAX. UNTIL ABOVE MSA.
LEVEL-OFF AT AN ALTITUDE ROUNDED OFF TO THE FIRST 1000 FT OF THE HIGHEST MSA.
E.G: MSA EHAM; 1.7 AND 2.3 LEVEL-OFF 3000 FT. AFTER LANDING MAKE A REP TO OCC ON 131.975
SOURCE:SPL/HV/OCC
END VALID:UFN



flightlog:
Pilot : Filipe Spring
Flight: TRA5194
From  : LFPO Paris
To    : EHAM Schiphol

[FLIGHTLOG] 1.5.4
02-08-2018 22:13:06z, logging started
02-08-2018 22:18:47z, parking brake released
02-08-2018 22:21:02z, flaps set to 12%
02-08-2018 22:21:03z, flaps set to 37%
02-08-2018 22:25:24z, take-off at 156 KIAS
02-08-2018 22:25:24z, pos report: 156 KIAS, 00 304 ft, heading 074, winds 089 @ 06 kts
02-08-2018 22:25:24z, flying online @ IVAO (TRA19G)
02-08-2018 22:25:24z, position: LFPO - Paris
02-08-2018 22:25:30z, retracted gear at 164 KIAS and 112 ft AGL
02-08-2018 22:26:13z, flaps set to 12%
02-08-2018 22:26:39z, flaps set to 0%
02-08-2018 22:28:06z, pos report: 220 KIAS, 07 514 ft, heading 157, winds 104 @ 03 kts
02-08-2018 22:43:07z, pos report: 322 KIAS, 24 192 ft, heading 031, winds 250 @ 10 kts
02-08-2018 22:58:08z, pos report: 322 KIAS, 24 063 ft, heading 004, winds 115 @ 03 kts
02-08-2018 23:08:32z, deployed spoilers
02-08-2018 23:10:55z, retracted spoilers
02-08-2018 23:13:10z, pos report: 251 KIAS, 10 148 ft, heading 030, winds 189 @ 08 kts
02-08-2018 23:18:33z, on glideslope
02-08-2018 23:18:47z, flaps set to 12%
02-08-2018 23:19:17z, below glideslope
02-08-2018 23:19:34z, on glideslope
02-08-2018 23:19:46z, flaps set to 37%
02-08-2018 23:20:01z, intercepted localizer
02-08-2018 23:20:49z, lowered gear at 179 KIAS and 2100 ft AGL
02-08-2018 23:20:58z, flaps set to 62%
02-08-2018 23:21:12z, flaps set to 87%
02-08-2018 23:23:38z, touchdown: -83ft/m at 144 KIAS
02-08-2018 23:23:38z, pos report: 144 KIAS, 00 001 ft, heading 056, winds 281 @ 08 kts
02-08-2018 23:23:38z, flying online @ IVAO (TRA19G)
02-08-2018 23:23:38z, position: EHAM - Schiphol
02-08-2018 23:24:14z, flaps set to 0%
02-08-2018 23:28:12z, pos report: 000 KIAS, 00 000 ft, heading 178, winds 004 @ 09 kts
02-08-2018 23:27:45z, parking brake set
02-08-2018 23:28:48z, logging ended

©2009-2019, transavia virtual. All rights reserved. This website is only meant for simulation purposes.
This website is not owned by transavia, nor is transavia responsible for the content of this website.